createdAt,value
2022-09-20T00:02:02.867Z,0.80
2022-09-20T00:04:30.996Z,0.60
2022-09-20T00:06:58.996Z,0.70
2022-09-20T00:09:27.275Z,1.60
2022-09-20T00:11:55.253Z,1.60
2022-09-20T00:14:23.416Z,0.70
2022-09-20T00:16:51.976Z,1.00
2022-09-20T00:19:22.131Z,0.70
2022-09-20T00:21:50.295Z,6.40
2022-09-20T00:24:19.322Z,1.00
2022-09-20T00:26:47.555Z,0.30
2022-09-20T00:29:15.504Z,6.00
2022-09-20T00:31:43.617Z,2.10
2022-09-20T00:34:31.146Z,1.40
2022-09-20T00:36:59.343Z,1.30
2022-09-20T00:39:27.439Z,0.50
2022-09-20T00:41:55.593Z,0.80
2022-09-20T00:44:42.849Z,1.20
2022-09-20T00:47:26.258Z,1.60
2022-09-20T00:50:02.983Z,0.90
2022-09-20T00:52:31.737Z,1.70
2022-09-20T00:55:00.844Z,1.30
2022-09-20T01:00:08.037Z,1.00
2022-09-20T01:02:40.145Z,2.70
2022-09-20T01:05:09.854Z,1.20
2022-09-20T01:07:38.298Z,1.70
2022-09-20T01:10:06.644Z,1.70
2022-09-20T01:12:35.561Z,1.30
2022-09-20T01:15:05.371Z,0.60
2022-09-20T01:17:36.153Z,1.60
2022-09-20T01:20:15.895Z,5.10
2022-09-20T01:22:56.428Z,2.10
2022-09-20T01:25:51.647Z,0.60
2022-09-20T01:28:20.093Z,1.50
2022-09-20T01:31:12.592Z,1.00
2022-09-20T01:34:21.432Z,0.90
2022-09-20T01:37:03.523Z,1.80
2022-09-20T01:39:47.365Z,1.50
2022-09-20T01:42:15.674Z,0.60
2022-09-20T01:44:55.853Z,2.40
2022-09-20T01:47:59.937Z,2.90
2022-09-20T01:50:53.009Z,0.90
2022-09-20T01:53:39.811Z,1.80
2022-09-20T01:56:46.891Z,1.10
2022-09-20T01:59:43.877Z,2.00
2022-09-20T02:02:11.818Z,2.10
2022-09-20T02:04:54.622Z,0.80
2022-09-20T02:07:51.157Z,2.40
2022-09-20T02:10:48.004Z,1.10
2022-09-20T02:13:43.251Z,1.00
2022-09-20T02:16:30.972Z,1.30
2022-09-20T02:19:26.761Z,1.90
2022-09-20T02:22:10.405Z,1.10
2022-09-20T02:24:49.388Z,1.90
2022-09-20T02:27:26.659Z,4.30
2022-09-20T02:30:25.264Z,0.70
2022-09-20T02:33:02.246Z,1.50
2022-09-20T02:35:59.532Z,0.60
2022-09-20T02:39:03.007Z,1.00
2022-09-20T02:42:05.497Z,0.70
2022-09-20T02:44:46.058Z,0.80
2022-09-20T02:47:43.280Z,1.00
2022-09-20T02:50:31.843Z,0.90
2022-09-20T02:53:26.793Z,1.20
2022-09-20T02:56:39.344Z,0.50
2022-09-20T02:59:22.340Z,1.70
2022-09-20T03:02:19.341Z,1.60
2022-09-20T03:05:27.958Z,1.60
2022-09-20T03:08:28.188Z,1.20
2022-09-20T03:10:56.378Z,1.90
2022-09-20T03:14:01.424Z,0.70
2022-09-20T03:16:55.448Z,0.60
2022-09-20T03:19:57.785Z,2.20
2022-09-20T03:22:43.988Z,1.40
2022-09-20T03:25:49.315Z,1.40
2022-09-20T03:28:26.483Z,1.20
2022-09-20T03:31:01.014Z,1.50
2022-09-20T03:34:10.250Z,4.60
2022-09-20T03:37:07.464Z,4.10
2022-09-20T03:40:19.703Z,1.20
2022-09-20T03:42:52.601Z,2.10
2022-09-20T03:45:29.962Z,2.20
2022-09-20T03:47:58.326Z,2.40
2022-09-20T03:50:45.335Z,1.60
2022-09-20T03:53:40.510Z,1.20
2022-09-20T03:56:15.168Z,2.10
2022-09-20T03:59:01.731Z,2.00
2022-09-20T04:02:01.064Z,2.00
2022-09-20T04:04:40.970Z,3.50
2022-09-20T04:07:34.438Z,2.00
2022-09-20T04:10:44.430Z,2.50
2022-09-20T04:13:31.236Z,1.80
2022-09-20T04:16:15.715Z,2.90
2022-09-20T04:18:49.660Z,2.30
2022-09-20T04:21:23.870Z,1.80
2022-09-20T04:24:10.588Z,3.30
2022-09-20T04:26:47.283Z,7.80
2022-09-20T04:29:41.284Z,9.40
2022-09-20T04:32:24.343Z,5.40
2022-09-20T04:35:30.313Z,4.00
2022-09-20T04:38:05.622Z,2.30
2022-09-20T04:41:01.460Z,2.30
2022-09-20T04:44:06.653Z,2.80
2022-09-20T04:46:46.700Z,2.10
2022-09-20T04:49:17.632Z,2.20
2022-09-20T04:52:06.806Z,5.60
2022-09-20T04:57:29.237Z,3.40
2022-09-20T05:00:13.610Z,3.10
2022-09-20T05:03:00.023Z,3.60
2022-09-20T05:05:46.384Z,2.70
2022-09-20T05:08:48.774Z,3.60
2022-09-20T05:11:31.729Z,4.10
2022-09-20T05:14:13.033Z,3.20
2022-09-20T05:16:47.403Z,3.30
2022-09-20T05:19:41.382Z,4.30
2022-09-20T05:22:45.746Z,4.60
2022-09-20T05:25:22.475Z,4.80
2022-09-20T05:34:27.125Z,3.50
2022-09-20T05:37:15.332Z,4.00
2022-09-20T05:39:53.756Z,4.30
2022-09-20T05:42:24.877Z,6.30
2022-09-20T05:45:23.619Z,4.40
2022-09-20T05:48:10.222Z,4.10
2022-09-20T05:51:00.529Z,4.70
2022-09-20T05:53:41.709Z,3.90
2022-09-20T05:56:24.701Z,4.60
2022-09-20T05:59:02.152Z,9.00
2022-09-20T06:01:42.835Z,3.80
2022-09-20T06:04:30.673Z,4.50
2022-09-20T06:07:23.232Z,6.20
2022-09-20T06:10:00.340Z,4.90
2022-09-20T06:13:03.312Z,5.00
2022-09-20T06:15:45.548Z,5.00
2022-09-20T06:18:16.701Z,6.50
2022-09-20T06:21:04.984Z,7.80
2022-09-20T06:23:36.089Z,6.30
2022-09-20T06:26:10.497Z,6.50
2022-09-20T06:28:46.678Z,8.80
2022-09-20T06:31:17.088Z,6.60
2022-09-20T06:34:05.854Z,8.80
2022-09-20T06:36:54.833Z,9.80
2022-09-20T06:40:19.614Z,6.00
2022-09-20T06:42:47.705Z,8.70
2022-09-20T06:45:15.941Z,9.20
2022-09-20T06:47:43.951Z,9.50
2022-09-20T06:50:17.029Z,9.00
2022-09-20T06:52:46.716Z,7.30
2022-09-20T06:55:30.139Z,7.10
2022-09-20T06:57:58.599Z,7.00
2022-09-20T07:00:26.663Z,9.10
2022-09-20T07:02:55.572Z,9.60
2022-09-20T07:05:26.618Z,6.90
2022-09-20T07:07:59.071Z,6.20
2022-09-20T07:10:30.293Z,9.50
2022-09-20T07:13:00.445Z,8.50
2022-09-20T07:15:30.795Z,8.10
2022-09-20T07:18:00.345Z,9.80
2022-09-20T07:20:28.440Z,8.20
2022-09-20T07:22:56.570Z,6.90
2022-09-20T07:25:24.600Z,6.70
2022-09-20T07:27:52.811Z,8.00
2022-09-20T07:30:21.681Z,7.90
2022-09-20T07:32:50.810Z,6.00
2022-09-20T07:35:19.255Z,7.00
2022-09-20T07:37:47.946Z,7.40
2022-09-20T07:40:16.467Z,8.10
2022-09-20T07:42:46.064Z,6.90
2022-09-20T07:45:14.177Z,9.20
2022-09-20T07:47:44.893Z,7.20
2022-09-20T07:50:13.271Z,6.00
2022-09-20T07:52:41.484Z,7.40
2022-09-20T07:55:09.593Z,6.50
2022-09-20T07:57:38.414Z,7.20
2022-09-20T08:00:09.248Z,5.50
2022-09-20T08:02:44.617Z,6.40
2022-09-20T08:05:12.859Z,6.60
2022-09-20T08:07:41.013Z,6.50
2022-09-20T08:10:09.599Z,5.50
2022-09-20T08:15:25.973Z,5.50
2022-09-20T08:17:56.490Z,3.90
2022-09-20T08:20:24.615Z,3.40
2022-09-20T08:23:19.466Z,4.60
2022-09-20T08:25:44.162Z,3.80
2022-09-20T08:28:12.579Z,3.80
2022-09-20T08:30:40.592Z,4.60
2022-09-20T08:33:08.598Z,5.50
2022-09-20T08:35:38.102Z,4.00
2022-09-20T08:41:10.889Z,4.60
2022-09-20T08:43:45.973Z,4.30
2022-09-20T08:46:17.467Z,3.70
2022-09-20T08:48:46.507Z,4.00
2022-09-20T08:51:22.627Z,4.50
2022-09-20T08:53:56.281Z,4.30
2022-09-20T08:56:29.245Z,3.20
2022-09-20T08:58:59.469Z,6.80
2022-09-20T09:01:33.441Z,4.30
2022-09-20T09:04:23.570Z,4.70
2022-09-20T09:06:52.697Z,4.00
2022-09-20T09:09:24.665Z,3.70
2022-09-20T09:11:54.465Z,7.00
2022-09-20T09:14:44.376Z,3.50
2022-09-20T09:17:16.439Z,3.50
2022-09-20T09:19:50.770Z,6.40
2022-09-20T09:22:21.851Z,3.90
2022-09-20T09:25:17.123Z,5.70
2022-09-20T09:27:50.904Z,4.20
2022-09-20T09:30:31.351Z,5.00
2022-09-20T09:33:35.988Z,4.80
2022-09-20T09:36:03.843Z,3.00
2022-09-20T09:38:35.016Z,3.00
2022-09-20T09:41:06.770Z,2.80
2022-09-20T09:43:37.589Z,3.30
2022-09-20T09:46:23.888Z,4.90
2022-09-20T09:49:10.610Z,5.10
2022-09-20T09:51:42.465Z,6.30
2022-09-20T09:54:19.806Z,2.20
2022-09-20T09:57:25.997Z,2.90
2022-09-20T10:00:04.736Z,1.10
2022-09-20T10:02:49.960Z,2.70
2022-09-20T10:05:41.521Z,2.50
2022-09-20T10:08:43.656Z,1.20
2022-09-20T10:11:38.026Z,1.00
2022-09-20T10:14:34.360Z,1.10
2022-09-20T10:17:02.240Z,3.80
2022-09-20T10:19:48.931Z,1.60
2022-09-20T10:23:45.204Z,2.40
2022-09-20T10:26:33.544Z,3.70
2022-09-20T10:29:07.071Z,2.00
2022-09-20T10:31:35.834Z,3.40
2022-09-20T10:34:30.435Z,3.40
2022-09-20T10:37:00.383Z,2.40
2022-09-20T10:39:39.163Z,1.10
2022-09-20T10:42:53.188Z,4.30
2022-09-20T10:46:03.880Z,2.30
2022-09-20T10:48:26.085Z,3.80
2022-09-20T10:51:03.368Z,2.20
2022-09-20T10:53:49.314Z,3.30
2022-09-20T10:56:29.877Z,1.30
2022-09-20T10:59:12.833Z,1.50
2022-09-20T11:01:45.367Z,1.80
2022-09-20T11:04:38.551Z,2.10
2022-09-20T11:07:23.803Z,2.40
2022-09-20T11:10:02.065Z,2.20
2022-09-20T11:12:39.890Z,2.40
2022-09-20T11:15:32.566Z,3.70
2022-09-20T11:18:10.650Z,5.40
2022-09-20T11:20:54.394Z,1.60
2022-09-20T11:23:29.093Z,2.70
2022-09-20T11:26:05.351Z,3.80
2022-09-20T11:28:51.618Z,2.50
2022-09-20T11:31:29.976Z,2.20
2022-09-20T11:34:16.418Z,1.70
2022-09-20T11:37:01.330Z,4.70
2022-09-20T11:39:46.344Z,6.20
2022-09-20T11:42:20.265Z,4.40
2022-09-20T11:44:48.825Z,4.10
2022-09-20T11:47:53.445Z,2.70
2022-09-20T11:50:48.690Z,3.50
2022-09-20T11:53:38.610Z,3.60
2022-09-20T11:56:39.367Z,2.30
2022-09-20T11:59:28.433Z,3.50
2022-09-20T12:02:00.445Z,3.70
2022-09-20T12:04:36.639Z,2.40
2022-09-20T12:07:12.346Z,4.00
2022-09-20T12:09:45.682Z,2.50
2022-09-20T12:12:55.172Z,3.10
2022-09-20T12:15:29.557Z,3.90
2022-09-20T12:17:57.971Z,3.30
2022-09-20T12:20:34.959Z,2.10
2022-09-20T12:23:42.927Z,2.40
2022-09-20T12:26:23.000Z,2.40
2022-09-20T12:28:53.543Z,2.50
2022-09-20T12:31:32.212Z,2.90
2022-09-20T12:34:04.796Z,2.80
2022-09-20T12:36:38.308Z,2.50
2022-09-20T12:39:21.865Z,3.30
2022-09-20T12:41:56.522Z,2.30
2022-09-20T12:44:26.773Z,2.30
2022-09-20T12:47:00.333Z,3.30
2022-09-20T12:49:55.984Z,2.70
2022-09-20T12:52:50.781Z,1.80
2022-09-20T12:55:29.984Z,1.60
2022-09-20T12:58:15.969Z,3.00
2022-09-20T13:00:49.460Z,3.90
2022-09-20T13:03:23.887Z,5.30
2022-09-20T13:06:15.586Z,2.20
2022-09-20T13:08:48.630Z,3.00
2022-09-20T13:11:43.348Z,2.80
2022-09-20T13:14:22.764Z,3.10
2022-09-20T13:17:07.397Z,2.40
2022-09-20T13:19:44.870Z,2.40
2022-09-20T13:22:38.049Z,3.00
2022-09-20T13:25:13.323Z,3.10
2022-09-20T13:27:50.900Z,1.90
2022-09-20T13:30:22.766Z,3.30
2022-09-20T13:32:51.802Z,3.10
2022-09-20T13:38:02.072Z,3.60
2022-09-20T13:40:39.731Z,3.30
2022-09-20T13:43:24.775Z,2.30
2022-09-20T13:45:57.807Z,4.90
2022-09-20T13:48:28.002Z,2.20
2022-09-20T13:50:58.766Z,3.20
2022-09-20T13:53:41.437Z,3.70
2022-09-20T13:56:38.312Z,4.40
2022-09-20T13:59:06.700Z,3.70
2022-09-20T14:01:35.902Z,3.70
2022-09-20T14:04:08.550Z,2.90
2022-09-20T14:06:36.989Z,4.90
2022-09-20T14:09:19.053Z,3.50
2022-09-20T14:11:47.452Z,4.90
2022-09-20T14:14:19.987Z,3.10
2022-09-20T14:16:54.507Z,4.20
2022-09-20T14:19:31.493Z,3.60
2022-09-20T14:22:04.042Z,3.10
2022-09-20T14:24:37.329Z,4.00
2022-09-20T14:27:07.041Z,4.30
2022-09-20T14:29:35.022Z,6.80
2022-09-20T14:32:12.152Z,5.30
2022-09-20T14:34:41.429Z,4.70
2022-09-20T14:37:22.281Z,4.40
2022-09-20T14:39:58.674Z,5.60
2022-09-20T14:42:42.769Z,4.70
2022-09-20T14:45:24.248Z,4.70
2022-09-20T14:48:10.128Z,2.80
2022-09-20T14:50:44.626Z,3.00
2022-09-20T14:53:12.673Z,3.10
2022-09-20T14:56:11.642Z,3.40
2022-09-20T14:59:01.253Z,4.40
2022-09-20T15:01:29.489Z,4.00
2022-09-20T15:03:58.794Z,1.70
2022-09-20T15:06:26.889Z,3.00
2022-09-20T15:08:54.848Z,2.80
2022-09-20T15:11:22.964Z,2.40
2022-09-20T15:13:51.247Z,2.50
2022-09-20T15:16:20.545Z,5.20
2022-09-20T15:18:48.969Z,4.80
2022-09-20T15:21:17.263Z,2.90
2022-09-20T15:23:45.548Z,3.70
2022-09-20T15:26:15.177Z,3.40
2022-09-20T15:28:43.224Z,3.50
2022-09-20T15:31:11.519Z,4.40
2022-09-20T15:33:39.891Z,3.50
2022-09-20T15:36:08.592Z,7.00
2022-09-20T15:38:36.795Z,3.40
2022-09-20T15:41:04.904Z,4.40
2022-09-20T15:43:33.802Z,6.10
2022-09-20T15:46:19.684Z,4.50
2022-09-20T15:48:47.964Z,4.40
2022-09-20T15:51:16.618Z,4.50
2022-09-20T15:53:48.707Z,4.30
2022-09-20T15:56:21.180Z,3.80
2022-09-20T15:59:00.332Z,6.50
2022-09-20T16:01:35.526Z,3.30
2022-09-20T16:04:12.502Z,4.40
2022-09-20T16:06:42.758Z,4.30
2022-09-20T16:09:11.947Z,4.10
2022-09-20T16:11:40.433Z,4.10
2022-09-20T16:14:08.621Z,3.00
2022-09-20T16:16:40.333Z,4.20
2022-09-20T16:19:17.821Z,3.40
2022-09-20T16:22:04.767Z,6.40
2022-09-20T16:24:35.399Z,7.00
2022-09-20T16:27:06.334Z,9.10
2022-09-20T16:29:34.727Z,6.30
2022-09-20T16:32:03.861Z,8.20
2022-09-20T16:37:07.883Z,7.90
2022-09-20T16:39:36.179Z,5.90
2022-09-20T16:42:07.500Z,8.30
2022-09-20T16:44:37.591Z,6.10
2022-09-20T16:47:09.083Z,5.40
2022-09-20T16:49:38.019Z,6.30
2022-09-20T16:54:52.339Z,8.70
2022-09-20T16:57:22.437Z,6.50
2022-09-20T16:59:51.896Z,7.80
2022-09-20T17:02:20.078Z,5.80
2022-09-20T17:04:48.323Z,6.10
2022-09-20T17:07:18.780Z,6.30
2022-09-20T17:09:46.920Z,6.60
2022-09-20T17:12:18.832Z,9.60
2022-09-20T17:14:46.857Z,5.90
2022-09-20T17:17:14.820Z,4.90
2022-09-20T17:19:42.893Z,5.50
2022-09-20T17:22:11.682Z,10.20
2022-09-20T17:24:40.006Z,7.70
2022-09-20T17:27:08.419Z,6.40
2022-09-20T17:29:36.803Z,6.00
2022-09-20T17:32:05.023Z,7.10
2022-09-20T17:34:33.427Z,5.80
2022-09-20T17:37:01.764Z,5.70
2022-09-20T17:39:30.040Z,7.30
2022-09-20T17:42:01.434Z,7.80
2022-09-20T17:44:29.552Z,5.20
2022-09-20T17:46:57.618Z,5.60
2022-09-20T17:49:27.714Z,6.50
2022-09-20T17:51:56.177Z,5.90
2022-09-20T17:54:26.353Z,9.90
2022-09-20T17:56:55.948Z,5.80
2022-09-20T17:59:24.759Z,7.70
2022-09-20T18:01:54.523Z,6.60
2022-09-20T18:04:24.785Z,5.00
2022-09-20T18:06:54.454Z,5.00
2022-09-20T18:09:27.280Z,5.10
2022-09-20T18:11:57.724Z,4.40
2022-09-20T18:14:28.096Z,6.70
2022-09-20T18:17:01.358Z,5.20
2022-09-20T18:19:33.806Z,4.00
2022-09-20T18:22:03.218Z,7.00
2022-09-20T18:24:32.164Z,5.80
2022-09-20T18:27:01.047Z,4.60
2022-09-20T18:29:29.506Z,6.40
2022-09-20T18:31:59.745Z,6.30
2022-09-20T18:34:33.524Z,8.80
2022-09-20T18:37:03.944Z,7.30
2022-09-20T18:39:33.640Z,11.30
2022-09-20T18:42:02.653Z,8.40
2022-09-20T18:44:33.657Z,5.70
2022-09-20T18:47:05.853Z,6.00
2022-09-20T18:49:34.472Z,4.30
2022-09-20T18:52:03.264Z,10.70
2022-09-20T18:54:33.542Z,5.80
2022-09-20T18:57:02.323Z,5.60
2022-09-20T18:59:30.838Z,5.30
2022-09-20T19:02:42.869Z,5.20
2022-09-20T19:05:23.701Z,6.00
2022-09-20T19:07:55.061Z,7.60
2022-09-20T19:10:28.856Z,5.80
2022-09-20T19:13:16.082Z,7.30
2022-09-20T19:15:56.033Z,7.00
2022-09-20T19:18:45.112Z,5.00
2022-09-20T19:21:27.711Z,5.90
2022-09-20T19:24:08.245Z,4.60
2022-09-20T19:26:40.099Z,4.40
2022-09-20T19:29:22.719Z,9.50
2022-09-20T19:31:55.462Z,4.50
2022-09-20T19:34:26.298Z,6.20
2022-09-20T19:37:02.282Z,6.40
2022-09-20T19:39:53.465Z,9.80
2022-09-20T19:43:00.153Z,6.20
2022-09-20T19:45:44.682Z,7.20
2022-09-20T19:48:50.604Z,5.90
2022-09-20T19:51:19.137Z,6.70
2022-09-20T19:53:47.537Z,8.80
2022-09-20T19:56:25.020Z,4.50
2022-09-20T19:58:56.084Z,5.10
2022-09-20T20:01:25.797Z,5.20
2022-09-20T20:03:55.221Z,5.00
2022-09-20T20:06:42.842Z,5.90
2022-09-20T20:09:34.990Z,6.00
2022-09-20T20:12:16.458Z,6.30
2022-09-20T20:15:03.863Z,10.20
2022-09-20T20:17:45.128Z,8.80
2022-09-20T20:20:31.460Z,7.30
2022-09-20T20:23:34.660Z,12.90
2022-09-20T20:26:17.193Z,6.50
2022-09-20T20:28:55.352Z,7.30
2022-09-20T20:31:23.526Z,9.70
2022-09-20T20:33:51.880Z,6.40
2022-09-20T20:36:19.929Z,6.50
2022-09-20T20:38:51.748Z,9.00
2022-09-20T20:41:21.813Z,11.40
2022-09-20T20:43:56.169Z,9.60
2022-09-20T20:46:25.155Z,7.40
2022-09-20T20:48:53.464Z,7.10
2022-09-20T20:51:23.080Z,8.10
2022-09-20T20:53:53.016Z,8.20
2022-09-20T20:56:25.793Z,6.70
2022-09-20T20:58:54.789Z,5.60
2022-09-20T21:01:26.043Z,5.70
2022-09-20T21:03:55.174Z,4.80
2022-09-20T21:06:25.998Z,5.00
2022-09-20T21:08:54.404Z,5.00
2022-09-20T21:11:25.223Z,5.30
2022-09-20T21:13:54.993Z,32.00
2022-09-20T21:16:29.636Z,18.50
2022-09-20T21:18:58.947Z,26.20
2022-09-20T21:21:30.161Z,16.50
2022-09-20T21:24:00.465Z,11.70
2022-09-20T21:26:33.422Z,12.40
2022-09-20T21:29:03.888Z,11.00
2022-09-20T21:31:37.800Z,10.70
2022-09-20T21:34:07.146Z,8.80
2022-09-20T21:39:04.768Z,6.80
2022-09-20T21:41:35.192Z,5.10
2022-09-20T21:44:05.323Z,5.50
2022-09-20T21:46:36.190Z,5.00
2022-09-20T21:49:05.992Z,5.10
2022-09-20T21:51:35.595Z,5.90
2022-09-20T21:54:05.221Z,6.30
2022-09-20T21:56:35.892Z,8.40
2022-09-20T21:59:07.186Z,5.50
2022-09-20T22:01:37.870Z,4.90
2022-09-20T22:04:08.355Z,7.20
2022-09-20T22:06:41.247Z,7.00
2022-09-20T22:09:14.646Z,5.60
2022-09-20T22:11:45.257Z,5.90
2022-09-20T22:14:15.537Z,6.40
2022-09-20T22:16:45.143Z,4.80
2022-09-20T22:19:16.947Z,4.50
2022-09-20T22:21:47.249Z,6.10
2022-09-20T22:24:16.484Z,5.40
2022-09-20T22:26:47.705Z,4.40
2022-09-20T22:29:16.362Z,4.40
2022-09-20T22:34:19.867Z,5.30
2022-09-20T22:36:48.401Z,5.30
2022-09-20T22:39:17.231Z,4.90
2022-09-20T22:44:16.017Z,5.20
2022-09-20T22:46:44.055Z,5.00
2022-09-20T22:49:12.647Z,6.40
2022-09-20T22:51:40.773Z,8.90
2022-09-20T22:54:11.745Z,5.30
2022-09-20T22:56:42.576Z,6.10
2022-09-20T22:59:13.217Z,7.60
2022-09-20T23:01:44.379Z,6.60
2022-09-20T23:04:19.070Z,5.30
2022-09-20T23:06:55.097Z,6.50
2022-09-20T23:09:27.448Z,8.30
2022-09-20T23:11:55.739Z,4.40
2022-09-20T23:14:23.935Z,5.20
2022-09-20T23:16:54.763Z,5.80
2022-09-20T23:19:24.272Z,7.10
2022-09-20T23:21:53.520Z,5.30
2022-09-20T23:24:21.544Z,5.20
2022-09-20T23:26:49.826Z,4.80
2022-09-20T23:29:18.142Z,5.50
2022-09-20T23:31:47.308Z,5.50
2022-09-20T23:34:17.457Z,5.90
2022-09-20T23:36:46.646Z,4.40
2022-09-20T23:39:15.691Z,4.70
2022-09-20T23:41:48.398Z,5.10
2022-09-20T23:44:19.055Z,4.40
2022-09-20T23:46:47.048Z,5.20
2022-09-20T23:49:15.285Z,5.40
2022-09-20T23:51:43.476Z,4.80
2022-09-20T23:54:11.612Z,5.10
2022-09-20T23:56:40.910Z,4.50
2022-09-20T23:59:08.888Z,4.80
